AirNav   Pilot Hours Calculator
 
 820 users online  

NJ00 Ridgefield Park Seaplane Base
Ridgefield Park, New Jersey, USA

GOING TO RIDGEFIELD PARK?


FAA INFORMATION EFFECTIVE 05 DECEMBER 2019

Location

FAA Identifier: NJ00
Lat/Long: 40-50-45.3590N 074-01-43.5030W
40-50.755983N 074-01.725050W
40.8459331,-74.0287508
(estimated)
Elevation: 0 ft. / 0 m (estimated)
Variation: 13W (1985)
From city: 1 mile S of RIDGEFIELD PARK, NJ
Time zone: UTC -5 (UTC -4 during Daylight Saving Time)
Zip code: 07643

Seaplane Base Operations

Seaplane Base use: Private use. Permission required prior to landing
Control tower: no
ARTCC: NEW YORK CENTER
FSS: MILLVILLE FLIGHT SERVICE STATION
Attendance: JUN-SEP SR-SS, OCT-MAY 0800-1700
Wind indicator: yes
Segmented circle: no

Seaplane Base Communications

WX ASOS at TEB (1.5 nm W): 132.025 (201-393-0855)
WX ASOS at LGA (8 nm SE): PHONE 718-672-6317
WX AWOS-3PT at JRB (9 nm S): 128.175 (212-425-1534)
WX ASOS at EWR (11 nm SW): PHONE 973-621-2892
WX ASOS at CDW (12 nm W): 135.5 (973-575-4417)
WX ASOS at JFK (17 nm SE): 128.725 (718-656-0956)
WX AWOS-3 at LDJ (17 nm SW): 124.025 (908-862-7383)
WX AWOS-3 at MMU (18 nm W): PHONE 973-290-0135
WX ASOS at HPN (20 nm NE): PHONE 914-288-0216

Nearby radio navigation aids

VOR radial/distance  VOR name  Freq  Var
TEBr107/1.5TETERBORO VOR/DME108.4011W
LGAr309/8.2LA GUARDIA VOR/DME113.1012W
CRIr347/15.3CANARSIE VOR/DME112.3011W
JFKr330/17.3KENNEDY VOR/DME115.9012W
SAXr131/26.6SPARTA VORTAC115.7011W
COLr022/32.6COLTS NECK VOR/DME115.4011W
CMKr230/33.0CARMEL VOR/DME116.6012W
DPKr288/33.1DEER PARK VOR/DME117.7012W
SBJr074/36.1SOLBERG VOR/DME112.9010W
BWZr096/36.1BROADWAY VOR/DME114.2011W
STWr114/39.1STILLWATER VOR/DME109.6011W

 
NDB name  Hdg/Dist  Freq  Var  ID
TORBY074/5.321412WTE - .
CHATHAM084/19.325413WCAT -.-. .- -
BABYLON304/31.127514WBBN -... -... -.

Seaplane Base Services

Fuel available: A

Runway Information

Runway 1W/19W

Dimensions: 5500 x 150 ft. / 1676 x 46 m
Surface: water
RUNWAY 1W  RUNWAY 19W
Traffic pattern: leftright
Obstructions: 50 ft. towers, 1000 ft. from runway, 20:1 slope to clear85 ft. bridge, 1500 ft. from runway, 17:1 slope to clear

Seaplane Base Ownership and Management from official FAA records

Ownership: Privately-owned
Owner: AIRSTAR
15 BERGEN TURNPIKE
RIDGEFIELD PARK, NJ 07660
Phone 201-440-5050
Manager: VAL MAZZUCCA
15 BERGEN TURNPIKE
RIDGEFIELD PARK, NJ 07660
Phone 201-440-5050

Seaplane Base Operational Statistics

Aircraft based on the field: 5
Helicopters: 5
    
Aircraft operations: avg 44/week *
65% local general aviation
22% air taxi
13% transient general aviation
* for 12-month period ending 31 July 1990

Additional Remarks

FOR CD CTC NEW YORK APCH AT 800-645-3206.

Instrument Procedures

There are no published instrument procedures at NJ00.

Some nearby airports with instrument procedures:

KTEB - Teterboro Airport (1 nm W)
KJRA - West 30th St Heliport (6 nm S)
6N5 - East 34th Street Heliport (7 nm SE)
KLGA - LaGuardia Airport (8 nm SE)
KJRB - Downtown Manhattan/Wall Street Heliport (9 nm S)
KEWR - Newark Liberty International Airport (11 nm SW)
KCDW - Essex County Airport (12 nm W)
N07 - Lincoln Park Airport (14 nm NW)
KJFK - John F Kennedy International Airport (17 nm SE)
KLDJ - Linden Airport (17 nm SW)
 
Loc | Ops | Rwys | IFR | FBO | Links
Com | Nav | Svcs | Stats | Notes
Area around NJ00 (Ridgefield Park Seaplane Base)
 
Road maps at: MapQuest Bing Google
 
Aerial photo
No photo
 
Sectional chart

 
Airport distance calculator
Flying to Ridgefield Park Seaplane Base? Find the distance to fly.

From to NJ00

Sunrise and sunset
Times for 12-Dec-2019
 Local
(UTC-5)
 Zulu
(UTC)
Morning civil twilight06:4111:41
Sunrise07:1212:12
Sunset16:2721:27
Evening civil twilight16:5821:58

Current date and time
Zulu (UTC)  13-Dec-2019 02:57:13
Local (UTC-5)  12-Dec-2019 21:57:13
 
METAR
KTEB 
2nm NW 
130251Z 17003KT 10SM CLR 00/M09 A3066 RMK AO2 SLP381 T00001089 58006
KNYC 
5nm SE 
130251Z AUTO VRB04KT 10SM CLR 01/M08 A3068 RMK AO2 SLP381 T00061078 58006 $
KLGA 
8nm SE 
130251Z 13004KT 10SM BKN250 01/M08 A3067 RMK AO2 SLP383 T00111078 58008 $
KJRB 
9nm S 
130156Z AUTO 18003KT CLR 02/M07 A3069 RMK AO2 SLP392 T00171072 PWINO FZRANO
KEWR 
12nm SW 
130251Z 14003KT 10SM BKN250 01/M08 A3067 RMK AO2 SLP384 T00061078 58006
KCDW 
12nm W 
130253Z 00000KT 10SM CLR M03/M07 A3066 RMK AO2 SLP389 T10281072 58006
KLDJ 
17nm SW 
130255Z AUTO 00000KT 10SM CLR M01/M08 A3067 RMK AO2 T10081085
KJFK 
17nm SE 
130251Z 00000KT 10SM FEW032 SCT250 M01/M06 A3068 RMK AO2 SLP389 T10111056 58007 $
KMMU 
18nm W 
130250Z 00000KT 10SM SCT250 M05/M05 A3066
KHPN 
20nm NE 
130156Z 14003KT 10SM CLR M03/M08 A3065 RMK AO2 SLP391 T10281083
TAF
KTEB 
2nm NW 
122043Z 1221/1324 VRB04KT P6SM BKN250 FM130500 VRB02KT P6SM SCT030 BKN250 FM130800 VRB02KT P6SM BKN030 FM131400 08004KT P6SM FEW012 BKN020 PROB30 1316/1321 5SM -RA OVC010 FM132100 10006KT 3SM RA BR OVC010
KLGA 
8nm SE 
122043Z 1221/1324 VRB05KT P6SM BKN250 FM122200 16005KT P6SM BKN250 FM130500 15005KT P6SM SCT030 BKN250 FM130800 13005KT P6SM BKN030 FM131400 08006KT P6SM FEW012 BKN020 PROB30 1316/1321 5SM -RA OVC010 FM132100 10006KT 3SM RA BR OVC010
KEWR 
12nm SW 
122043Z 1221/1324 VRB04KT P6SM BKN250 FM122200 15005KT P6SM BKN250 FM130500 14004KT P6SM SCT030 BKN250 FM130800 VRB03KT P6SM BKN030 FM131400 07005KT P6SM FEW012 BKN020 PROB30 1316/1321 5SM -RA OVC010 FM132100 10006KT 3SM RA BR OVC010
KJFK 
17nm SE 
122043Z 1221/1324 VRB05KT P6SM BKN250 FM122200 16006KT P6SM BKN250 FM130500 16006KT P6SM SCT030 BKN250 FM130800 15006KT P6SM BKN030 FM131400 12006KT P6SM FEW012 BKN020 PROB30 1316/1321 5SM -RA OVC010 FM132100 10006KT 3SM RA BR OVC010
KHPN 
20nm NE 
122043Z 1221/1318 VRB03KT P6SM BKN250 FM130600 VRB02KT P6SM BKN040 FM130900 VRB02KT P6SM BKN030 FM131400 10004KT P6SM SCT015 BKN020 PROB30 1316/1318 5SM -RA BKN010 AMD NOT SKED
NOTAMs
Click for the latest NOTAMs
NOTAMs are issued by the DoD/FAA and will open in a separate window not controlled by AirNav.

 

 
 

Would you like to see your business listed on this page?

 If your business provides an interesting product or service to pilots, flight crews, aircraft, or users of the Ridgefield Park Seaplane Base, you should consider listing it here.  To start the listing process, click on the button below
 
Add a business
 

Other Pages about Ridgefield Park Seaplane Base

Update a link
 
Copyright © AirNav, LLC. All rights reserved. Privacy Policy  Contact